Durkee, Oregon
Current Conditions -  °F | °C
As of 8:53 AM on Thursday 30 Oct 2014 (Local Time) from KBKE Reporting Station
Overcast Overcast  
Wind Chill: 51°   Ceiling: 9000
Heat Index: 51°   Visibility: 10mi
Dew Point: 40°   Wind: 9mph
Humidity: 66%   Direction: 100°E
Pressure: 30.15"   Gusts: NA
Location:  44.58°N, 117.46°W
Report Text: KBKE 301553Z AUTO 10008KT 10SM OVC090 11/04 A3015 RMK AO2 SLP207 T01060044
Loading
Personal Weather Stations






























Interactive Weather Map
Tropical Storm Tracking
New forecast layout! Learn more

10-Day Weather Forecast

Advertisements
Track Severe Weather on mobile